Latest Weather Observations for Daly Waters

IDD60801

Issued at 8:21 am CST Sunday 18 April 2021 (issued every 10 minutes, with the page automatically refreshed every 10 minutes)

About weather observations | Map of weather stations | Latest weather observations for NT | Other Formats
Station Details ID: 014626 Name: DALY WATERS AIRSTRIP Lat: -16.26 Lon: 133.38 Height: 209.84 m
Data from the previous 72 hours. | See also: Recent months at Daly Waters
Date/Time
CST
Temp
°C
App
Temp
°C
Dew
Point
°C
Rel
Hum
%
Delta-T
°C
Wind Press
QNH
hPa
Press
MSL
hPa
Rain since
9am
mm
Dir  Spd
km/h
Gust
km/h
Spd
kts
Gust
kts
18/08:00am 22.1 16.1 1.2 25 9.7 SE 22 33 12 18 1015.5 1014.2 0.0
18/07:30am 21.6 15.9 0.8 25 9.6 SE 20 43 11 23 1015.3 1014.0 0.0
18/07:00am 21.5 15.8 0.7 25 9.5 SE 20 37 11 20 1015.0 1013.7 0.0
18/06:30am 21.6 16.1 0.8 25 9.6 SE 19 33 10 18 1014.6 1013.3 0.0
18/06:00am 22.0 16.0 1.1 25 9.7 SE 22 35 12 19 1014.4 1013.1 0.0
18/05:30am 22.1 16.5 1.2 25 9.7 SE 20 33 11 18 1014.3 1013.0 0.0
18/05:00am 22.3 17.0 1.9 26 9.6 SE 19 30 10 16 1014.2 1012.9 0.0
18/04:30am 22.5 17.2 2.1 26 9.7 SE 19 33 10 18 1014.1 1012.8 0.0
18/04:00am 22.7 17.9 2.8 27 9.6 SE 17 32 9 17 1014.2 1012.9 0.0
18/03:30am 22.9 18.2 2.9 27 9.7 SE 17 28 9 15 1014.2 1012.9 0.0
18/03:00am 22.4 18.2 4.0 30 9.0 SE 15 26 8 14 1014.2 1012.9 0.0
18/02:30am 22.0 18.7 4.6 32 8.6 SE 11 19 6 10 1014.5 1013.2 0.0
18/02:00am 22.0 18.8 5.0 33 8.5 SE 11 19 6 10 1014.5 1013.2 0.0
18/01:30am 22.0 19.3 5.4 34 8.4 SE 9 19 5 10 1014.7 1013.4 0.0
18/01:00am 22.1 19.5 5.9 35 8.2 SSE 9 19 5 10 1014.9 1013.6 0.0
18/12:30am 22.1 19.5 6.3 36 8.1 SSE 9 17 5 9 1015.0 1013.7 0.0
18/12:00am 22.3 19.9 6.9 37 8.0 SSE 9 15 5 8 1015.1 1013.8 0.0
 
Date/Time
CST
Temp
°C
App
Temp
°C
Dew
Point
°C
Rel
Hum
%
Delta-T
°C
Wind Press
QNH
hPa
Press
MSL
hPa
Rain since
9am
mm
Dir  Spd
km/h
Gust
km/h
Spd
kts
Gust
kts
17/11:30pm 22.2 20.4 8.0 40 7.5 SSE 7 11 4 6 1015.2 1013.9 0.0
17/11:00pm 22.5 20.6 7.5 38 7.9 SSE 7 9 4 5 1015.1 1013.8 0.0
17/10:30pm 22.3 20.7 8.8 42 7.2 SSE 7 9 4 5 1015.0 1013.7 0.0
17/10:00pm 22.1 20.8 9.3 44 6.9 SSE 6 9 3 5 1015.1 1013.8 0.0
17/09:30pm 22.1 21.0 9.9 46 6.7 SSE 6 9 3 5 1015.1 1013.8 0.0
17/09:00pm 22.7 21.6 9.8 44 7.1 SSE 6 7 3 4 1014.9 1013.6 0.0
17/08:30pm 22.8 21.6 10.3 45 6.9 SSE 7 9 4 5 1014.6 1013.3 0.0
17/08:00pm 21.3 20.6 11.3 53 5.6 S 6 9 3 5 1014.4 1013.1 0.0
17/07:30pm 22.5 21.8 10.0 45 6.9 SSE 4 6 2 3 1014.0 1012.7 0.0
17/07:00pm 24.9 23.9 8.8 36 8.8 SSE 4 6 2 3 1013.7 1012.4 0.0
17/06:30pm 27.7 26.1 8.1 29 10.7 SE 6 7 3 4 1013.4 1012.2 0.0
17/06:00pm 29.8 27.6 7.7 25 12.1 SE 9 17 5 9 1013.2 1012.0 0.0
17/05:30pm 30.8 27.8 7.9 24 12.7 SSE 13 20 7 11 1013.1 1011.9 0.0
17/05:00pm 31.3 28.3 7.7 23 13.1 SSE 13 22 7 12 1012.9 1011.6 0.0
17/04:30pm 31.5 28.0 7.2 22 13.3 SE 15 24 8 13 1012.8 1011.5 0.0
17/04:00pm 31.7 28.8 8.0 23 13.2 SE 13 26 7 14 1012.8 1011.5 0.0
17/03:30pm 31.6 28.3 8.0 23 13.1 SE 15 24 8 13 1013.0 1011.7 0.0
17/03:00pm 31.4 28.0 7.8 23 13.1 SE 15 26 8 14 1013.2 1012.0 0.0
17/02:30pm 31.2 27.4 7.6 23 13.0 SSE 17 30 9 16 1013.8 1012.5 0.0
17/02:00pm 31.0 27.2 7.5 23 12.9 SE 17 26 9 14 1014.4 1013.1 0.0
17/01:30pm 30.2 25.9 6.8 23 12.7 SE 19 30 10 16 1014.8 1013.5 0.0
17/01:00pm 30.2 26.4 7.4 24 12.5 SE 17 32 9 17 1015.2 1013.9 0.0
17/12:30pm 29.8 25.7 7.7 25 12.1 SE 19 30 10 16 1015.8 1014.5 0.0
17/12:00pm 28.9 24.4 6.9 25 11.8 SE 20 33 11 18 1016.4 1015.1 0.0
17/11:30am 28.4 23.5 7.1 26 11.5 SE 22 33 12 18 1017.0 1015.7 0.0
17/11:00am 27.6 22.3 6.9 27 11.1 SSE 24 35 13 19 1017.6 1016.4 0.0
17/10:30am 26.7 21.6 6.2 27 10.8 SE 22 35 12 19 1017.6 1016.4 0.0
17/10:00am 26.1 21.2 6.7 29 10.3 SE 22 37 12 20 1018.1 1016.9 0.0
17/09:30am 25.2 20.6 6.4 30 9.8 SSE 20 37 11 20 1017.9 1016.7 0.0
17/09:00am 24.2 18.7 6.0 31 9.4 SE 24 41 13 22 1017.8 1016.6 0.0
17/08:30am 23.8 18.3 6.1 32 9.1 SE 24 39 13 21 1017.6 1016.4 0.0
17/08:00am 23.4 19.0 6.7 34 8.7 SE 19 32 10 17 1017.3 1016.1 0.0
17/07:30am 22.9 20.0 6.6 35 8.4 SSE 11 20 6 11 1016.9 1015.6 0.0
17/07:00am 22.9 19.2 6.2 34 8.6 SE 15 26 8 14 1016.5 1015.2 0.0
17/06:30am 22.2 19.4 6.8 37 8.0 SE 11 15 6 8 1016.1 1014.8 0.0
17/06:00am 21.4 19.2 8.0 42 7.0 SE 9 17 5 9 1015.7 1014.4 0.0
17/05:30am 20.3 19.0 9.2 49 5.9 S 6 7 3 4 1015.4 1014.1 0.0
17/05:00am 20.7 19.4 9.3 48 6.1 SSE 6 7 3 4 1015.2 1013.9 0.0
17/04:30am 21.9 20.4 8.4 42 7.2 SSE 6 7 3 4 1015.1 1013.8 0.0
17/04:00am 23.6 21.4 7.7 36 8.4 SE 9 15 5 8 1015.1 1013.8 0.0
17/03:30am 24.6 21.6 7.7 34 9.0 SE 13 24 7 13 1014.9 1013.6 0.0
17/03:00am 25.2 21.2 8.2 34 9.2 SE 19 32 10 17 1014.3 1013.0 0.0
17/02:30am 23.9 22.8 10.6 43 7.4 SSE 7 13 4 7 1014.3 1013.0 0.0
17/02:00am 25.0 23.0 10.1 39 8.3 SE 11 17 6 9 1014.3 1013.0 0.0
17/01:30am 24.0 23.0 11.0 44 7.3 SSE 7 9 4 5 1014.3 1013.0 0.0
17/01:00am 24.8 23.4 11.0 42 7.8 SSE 9 13 5 7 1014.4 1013.1 0.0
17/12:30am 25.2 23.9 11.4 42 7.9 SSE 9 15 5 8 1014.3 1013.0 0.0
17/12:00am 24.7 23.6 12.0 45 7.3 SSE 9 13 5 7 1014.3 1013.0 0.0
 
Date/Time
CST
Temp
°C
App
Temp
°C
Dew
Point
°C
Rel
Hum
%
Delta-T
°C
Wind Press
QNH
hPa
Press
MSL
hPa
Rain since
9am
mm
Dir  Spd
km/h
Gust
km/h
Spd
kts
Gust
kts
16/11:30pm 22.5 22.3 13.0 55 5.5 S 6 7 3 4 1014.4 1013.1 0.0
16/11:00pm 23.3 23.2 13.8 55 5.6 S 7 9 4 5 1014.4 1013.1 0.0
16/10:30pm 21.4 22.3 15.0 67 3.8 S 4 6 2 3 1014.2 1012.9 0.0
16/10:00pm 21.4 22.2 14.8 66 3.9 S 4 6 2 3 1014.1 1012.8 0.0
16/09:30pm 22.1 23.2 14.7 63 4.4 S 2 4 1 2 1014.1 1012.8 0.0
16/09:00pm 22.3 23.1 14.7 62 4.5 S 4 6 2 3 1014.1 1012.8 0.0
16/08:30pm 22.8 23.0 14.1 58 5.1 SSE 6 6 3 3 1013.7 1012.4 0.0
16/08:00pm 23.8 24.4 14.2 55 5.7 SSE 4 4 2 2 1013.4 1012.2 0.0
16/07:30pm 25.1 26.0 13.9 49 6.7 SSE 2 2 1 1 1013.0 1011.7 0.0
16/07:00pm 26.6 26.6 12.3 41 8.3 SSE 4 4 2 2 1012.6 1011.3 0.0
16/06:30pm 29.8 28.8 10.4 30 11.1 SE 6 6 3 3 1012.3 1011.0 0.0
16/06:00pm 32.0 30.6 9.5 25 12.9 SE 7 11 4 6 1012.1 1010.8 0.0
16/05:30pm 33.2 30.8 8.6 22 13.9 ESE 11 17 6 9 1012.1 1010.8 0.0
16/05:00pm 33.9 31.7 9.2 22 14.2 ESE 11 19 6 10 1011.9 1010.6 0.0
16/04:30pm 34.6 32.5 9.8 22 14.4 SE 11 20 6 11 1011.5 1010.2 0.0
16/04:00pm 34.7 32.3 9.9 22 14.4 SSE 13 22 7 12 1011.3 1010.0 0.0
16/03:30pm 34.3 31.4 9.5 22 14.3 SSE 15 24 8 13 1011.3 1010.0 0.0
16/03:00pm 34.2 32.2 10.1 23 14.0 SE 11 24 6 13 1011.4 1010.1 0.0
16/02:30pm 34.0 32.3 11.2 25 13.5 SSE 11 22 6 12 1011.5 1010.2 0.0
16/02:00pm 34.1 32.6 13.0 28 12.8 SSE 13 19 7 10 1011.8 1010.5 0.0
16/01:30pm 32.9 32.3 14.5 33 11.4 SE 11 20 6 11 1012.2 1010.9 0.0
16/01:00pm 32.7 33.0 16.1 37 10.5 S 9 17 5 9 1012.6 1011.3 0.0
16/12:30pm 32.2 32.8 17.7 42 9.4 SE 11 17 6 9 1013.1 1011.9 0.0
16/12:00pm 31.7 31.8 16.4 39 9.7 E 11 20 6 11 1013.8 1012.5 0.0
16/11:30am 31.7 33.1 17.9 43 8.9 ESE 7 17 4 9 1014.3 1013.0 0.0
16/11:00am 30.7 31.8 18.1 47 8.1 S 9 13 5 7 1014.8 1013.5 0.0
16/10:30am 29.6 31.1 19.0 53 6.9 SSE 9 17 5 9 1015.4 1014.1 0.0
16/10:00am 28.5 30.5 20.0 60 5.6 SE 9 13 5 7 1015.6 1014.3 0.0
16/09:30am 27.5 29.9 20.1 64 4.9 SSE 7 15 4 8 1015.5 1014.2 0.0
16/09:00am 26.4 28.6 20.5 70 3.9 S 9 15 5 8 1015.4 1014.1 0.0
16/08:30am 25.2 27.5 19.8 72 3.5 S 7 13 4 7 1015.1 1013.8 0.0
16/08:00am 23.1 24.7 18.2 74 3.1 S 7 11 4 6 1014.8 1013.5 0.0
16/07:30am 20.5 21.8 17.1 81 2.1 S 6 9 3 5 1014.6 1013.3 0.0
16/07:00am 18.7 19.6 16.1 85 1.6 S 6 9 3 5 1014.1 1012.8 0.0
16/06:30am 18.3 19.8 15.6 84 1.6 SW 2 2 1 1 1013.7 1012.4 0.0
16/06:00am 18.2 19.3 15.6 85 1.5 SW 4 6 2 3 1013.3 1012.1 0.0
16/05:30am 18.3 19.4 15.6 84 1.6 SW 4 4 2 2 1012.9 1011.6 0.0
16/05:00am 18.3 19.4 15.6 84 1.6 SW 4 4 2 2 1012.9 1011.6 0.0
16/04:30am 18.4 20.2 15.6 84 1.7 CALM 0 0 0 0 1012.8 1011.5 0.0
16/04:00am 18.7 20.6 15.8 83 1.7 CALM 0 0 0 0 1012.7 1011.4 0.0
16/03:30am 19.0 20.9 15.7 81 2.0 CALM 0 0 0 0 1012.7 1011.4 0.0
16/03:00am 19.2 21.2 15.9 81 2.0 CALM 0 0 0 0 1012.8 1011.5 0.0
16/02:30am 19.4 21.4 15.9 80 2.1 CALM 0 0 0 0 1012.9 1011.6 0.0
16/02:00am 19.6 21.6 15.9 79 2.2 CALM 0 0 0 0 1013.0 1011.7 0.0
16/01:30am 19.8 21.8 16.1 79 2.2 CALM 0 0 0 0 1013.2 1012.0 0.0
16/01:00am 20.1 22.1 16.1 78 2.4 CALM 0 0 0 0 1013.3 1012.1 0.0
16/12:30am 20.6 22.6 16.0 75 2.8 CALM 0 0 0 0 1013.4 1012.2 0.0
16/12:00am 21.1 23.1 16.1 73 3.0 CALM 0 0 0 0 1013.2 1012.0 0.0
 
Date/Time
CST
Temp
°C
App
Temp
°C
Dew
Point
°C
Rel
Hum
%
Delta-T
°C
Wind Press
QNH
hPa
Press
MSL
hPa
Rain since
9am
mm
Dir  Spd
km/h
Gust
km/h
Spd
kts
Gust
kts
15/11:30pm 20.7 22.7 16.1 75 2.8 CALM 0 0 0 0 1013.1 1011.9 0.0
15/11:00pm 20.9 22.9 15.9 73 3.0 CALM 0 0 0 0 1013.0 1011.7 0.0
15/10:30pm 21.4 23.6 16.4 73 3.1 CALM 0 0 0 0 1013.0 1011.7 0.0
15/10:00pm 21.5 23.4 15.8 70 3.4 CALM 0 0 0 0 1012.9 1011.6 0.0
15/09:30pm 22.0 23.8 15.6 67 3.9 CALM 0 0 0 0 1012.8 1011.5 0.0
15/09:00pm 22.5 24.3 15.6 65 4.2 CALM 0 0 0 0 1012.5 1011.2 0.0
15/08:30pm 22.8 24.6 15.6 64 4.4 CALM 0 0 0 0 1012.2 1010.9 0.0
15/08:00pm 23.6 25.3 15.1 59 5.1 CALM 0 2 0 1 1011.7 1010.4 0.0
15/07:30pm 24.6 26.2 15.0 55 5.8 CALM 0 2 0 1 1011.2 1009.9 0.0
15/07:00pm 26.5 27.7 13.9 45 7.5 CALM 0 0 0 0 1010.7 1009.4 0.0
15/06:30pm 29.7 29.8 12.6 35 10.2 ENE 4 4 2 2 1010.4 1009.1 0.0
15/06:00pm 32.7 32.0 11.3 27 12.6 NE 6 9 3 5 1010.2 1008.9 0.0
15/05:30pm 34.0 32.7 11.2 25 13.5 NE 9 13 5 7 1010.0 1008.7 0.0
15/05:00pm 34.5 33.0 10.4 23 14.1 ENE 9 17 5 9 1009.8 1008.5 0.0
15/04:30pm 35.0 33.6 9.4 21 14.8 ESE 7 15 4 8 1009.7 1008.4 0.0
15/04:00pm 35.0 33.2 9.4 21 14.8 ENE 9 17 5 9 1009.7 1008.4 0.0
15/03:30pm 35.1 33.3 9.5 21 14.8 ENE 9 19 5 10 1009.8 1008.5 0.0
15/03:00pm 34.9 32.9 10.0 22 14.5 NE 11 20 6 11 1010.0 1008.7 0.0
15/02:30pm 35.0 33.6 10.8 23 14.3 ESE 9 20 5 11 1010.4 1009.1 0.0
15/02:00pm 34.3 32.7 11.4 25 13.6 E 11 28 6 15 1010.9 1009.6 0.0
15/01:30pm 34.6 32.1 12.3 26 13.4 ENE 17 26 9 14 1011.2 1009.9 0.0
15/01:00pm 33.9 32.6 11.1 25 13.5 ENE 9 17 5 9 1011.9 1010.6 0.0
15/12:30pm 33.3 31.8 11.8 27 12.8 ENE 11 22 6 12 1012.3 1011.0 0.0
15/12:00pm 32.5 32.7 14.1 32 11.3 NE 6 13 3 7 1013.0 1011.7 0.0
15/11:30am 32.0 32.7 15.5 37 10.3 NE 6 13 3 7 1013.7 1012.4 0.0
15/11:00am 30.6 31.7 16.6 43 8.9 NE 6 11 3 6 1014.3 1013.0 0.0
15/10:30am 29.7 31.8 18.2 50 7.4 NNE 4 9 2 5 1014.6 1013.3 0.0
15/10:00am 28.7 30.7 19.1 56 6.3 NNE 7 11 4 6 1014.7 1013.4 0.0
15/09:30am 26.6 28.5 19.7 66 4.5 NNE 9 15 5 8 1014.9 1013.6 0.0
15/09:00am 25.0 27.2 19.6 72 3.5 N 7 13 4 7 1014.8 1013.5 0.0
15/08:30am 23.6 26.4 18.0 71 3.5 CALM 0 4 0 2 1014.6 1013.3 0.0

Other formats

Comma delimited format used in spreadsheet applications
http://www.bom.gov.au/fwo/IDD60801/IDD60801.94234.axf

JavaScript Object Notation format (JSON) in row-major order
http://www.bom.gov.au/fwo/IDD60801/IDD60801.94234.json

Data quality

Most of these data are generated automatically and are frequently updated. Quality checks on data are not normally performed. It is possible for incorrect values to appear. Refer to information at About Latest Weather Observations and please check the disclaimer before using these data.